Terminal Aerodrome Forecast
Issued by NWS

Home | Current Version | Previous Version | Text Only | Print | Product List | Glossary On
Versions: 1 2 3 4 5 6 7 8 9 10 11 12 13 14 15 16
000
FTUS44 KMAF 301100
TAFFST
TAF
KFST 301120Z 3012/3112 23008KT P6SM SKC
     FM310000 35007KT P6SM FEW200
     FM310900 04008KT 6SM BR BKN035=

USA.gov is the U.S. government's official web portal to all federal, state and local government web resources and services.